Time;durP1;ratioP1;P1;durP2;ratioP2;P2;SDS_P1;SDS_P2;PMS_P1;PMS_P2;Temp;Humidity;BMP_temperature;BMP_pressure;BME280_temperature;BME280_humidity;BME280_pressure;Samples;Min_cycle;Max_cycle;Signal;HPM_P1;HPM_P2
2023/05/31 04:33:17;;;;;;;;;18.25;15.00;;;;;17.70;56.15;101693.47;5017570;28;45762;-58
2023/05/31 04:35:43;;;;;;;;;25.50;21.25;;;;;17.64;56.20;101691.13;5019353;28;45364;-59
2023/05/31 04:38:09;;;;;;;;;19.75;18.00;;;;;17.56;56.43;101666.28;5018764;28;45449;-59
2023/05/31 04:40:34;;;;;;;;;20.00;16.75;;;;;17.67;56.15;101695.50;5018369;28;45339;-58
2023/05/31 04:43:00;;;;;;;;;22.50;18.50;;;;;17.66;56.52;101688.34;5019044;28;55955;-58
2023/05/31 04:45:27;;;;;;;;;18.25;16.25;;;;;17.67;56.35;101688.25;5001066;28;45164;-59
2023/05/31 04:47:52;;;;;;;;;20.75;17.25;;;;;17.69;56.23;101683.59;5019149;28;45281;-59
2023/05/31 04:50:18;;;;;;;;;26.00;15.50;;;;;17.65;56.38;101684.75;5019307;28;45297;-59
2023/05/31 04:52:44;;;;;;;;;20.25;16.25;;;;;17.70;56.16;101689.88;5019158;28;45346;-60
2023/05/31 04:55:09;;;;;;;;;19.75;18.00;;;;;17.71;56.21;101678.06;5018787;28;45364;-57
2023/05/31 04:57:35;;;;;;;;;16.50;14.50;;;;;17.76;56.18;101690.41;5019169;28;46271;-59
2023/05/31 05:00:00;;;;;;;;;23.00;18.25;;;;;17.80;56.01;101696.50;5018922;28;45415;-58
2023/05/31 05:02:26;;;;;;;;;20.25;16.25;;;;;17.82;56.20;101688.28;5018426;28;45415;-58
2023/05/31 05:04:52;;;;;;;;;18.25;16.25;;;;;17.85;56.17;101693.53;5018848;28;45361;-58
2023/05/31 05:07:17;;;;;;;;;16.00;13.50;;;;;17.87;56.12;101692.44;5018882;28;45289;-58
2023/05/31 05:09:43;;;;;;;;;18.50;17.00;;;;;17.87;56.24;101687.00;5018145;28;58444;-58
2023/05/31 05:12:09;;;;;;;;;22.75;16.75;;;;;17.89;55.96;101686.94;5019022;28;45582;-58
2023/05/31 05:14:35;;;;;;;;;17.50;15.00;;;;;17.89;56.29;101682.38;5018827;28;45341;-58
2023/05/31 05:17:01;;;;;;;;;18.50;16.75;;;;;17.90;55.93;101683.25;5018343;28;46368;-58
2023/05/31 05:19:26;;;;;;;;;16.50;15.50;;;;;17.94;55.86;101687.53;5018566;28;50595;-58
2023/05/31 05:21:52;;;;;;;;;19.75;17.25;;;;;17.97;55.81;101682.78;5018810;28;45363;-58
2023/05/31 05:24:17;;;;;;;;;19.25;17.50;;;;;17.98;55.61;101689.06;5018502;28;45377;-59
2023/05/31 05:26:43;;;;;;;;;21.75;17.75;;;;;17.93;55.74;101683.94;5018467;28;46301;-57
2023/05/31 05:29:09;;;;;;;;;13.25;12.25;;;;;17.99;55.58;101694.41;5018781;28;45265;-58
2023/05/31 05:31:34;;;;;;;;;16.00;13.25;;;;;18.03;55.70;101681.53;5018196;28;47289;-58
2023/05/31 05:33:59;;;;;;;;;19.75;15.50;;;;;18.02;55.54;101682.50;5018359;28;45443;-58
2023/05/31 05:36:26;;;;;;;;;20.00;17.50;;;;;18.06;55.46;101686.75;5018470;28;46341;-58
2023/05/31 05:38:51;;;;;;;;;19.75;16.00;;;;;18.04;55.57;101678.72;5018305;28;45395;-59
2023/05/31 05:41:17;;;;;;;;;16.25;15.25;;;;;18.11;55.41;101696.38;5018652;28;45316;-59
2023/05/31 05:43:43;;;;;;;;;18.25;15.75;;;;;18.08;55.12;101693.84;5017868;28;61909;-59
2023/05/31 05:46:08;;;;;;;;;17.50;15.00;;;;;18.12;54.89;101691.78;5018402;28;46283;-60
2023/05/31 05:48:34;;;;;;;;;22.75;20.25;;;;;18.13;54.82;101691.72;5000128;28;59342;-59
2023/05/31 05:51:00;;;;;;;;;20.25;17.00;;;;;18.11;55.00;101690.06;5017539;28;45254;-58
2023/05/31 05:53:25;;;;;;;;;15.50;12.75;;;;;18.10;55.25;101691.03;5017488;28;45360;-57
2023/05/31 05:55:52;;;;;;;;;18.75;17.75;;;;;18.11;54.90;101690.06;5017491;28;45328;-58
2023/05/31 05:58:18;;;;;;;;;14.50;12.50;;;;;18.08;55.11;101693.84;5016681;28;45350;-58
2023/05/31 06:00:47;;;;;;;;;13.75;13.00;;;;;18.13;55.25;101693.53;5018429;28;45370;-59
2023/05/31 06:03:13;;;;;;;;;18.00;16.50;;;;;18.17;55.05;101695.13;5016055;28;45582;-58
2023/05/31 06:05:39;;;;;;;;;21.00;17.50;;;;;18.18;54.69;101691.44;5018395;28;45367;-71
2023/05/31 06:08:05;;;;;;;;;16.50;16.50;;;;;18.19;54.86;101689.59;5018162;28;45336;-73
2023/05/31 06:10:30;;;;;;;;;20.00;14.50;;;;;18.22;54.80;101682.13;5017157;28;45262;-71
2023/05/31 06:12:56;;;;;;;;;16.25;15.50;;;;;18.28;54.90;101683.59;5018189;28;45263;-71
2023/05/31 06:15:22;;;;;;;;;15.25;14.00;;;;;18.36;54.53;101686.69;5018416;28;46054;-72
2023/05/31 06:17:48;;;;;;;;;13.50;12.25;;;;;18.37;54.24;101689.28;5017943;28;45318;-71
2023/05/31 06:20:13;;;;;;;;;17.25;15.25;;;;;18.39;53.97;101692.78;5018249;28;45328;-71
2023/05/31 06:22:39;;;;;;;;;16.75;15.50;;;;;18.38;54.45;101682.88;5018033;28;45465;-71
2023/05/31 06:25:05;;;;;;;;;18.00;16.25;;;;;18.36;54.01;101690.28;5017440;28;45403;-72
2023/05/31 06:27:30;;;;;;;;;18.50;15.75;;;;;18.35;54.29;101687.66;5017345;28;45329;-72
2023/05/31 06:29:57;;;;;;;;;13.75;13.75;;;;;18.36;54.28;101686.69;5021744;28;45316;-72
2023/05/31 06:32:24;;;;;;;;;21.00;17.50;;;;;18.38;54.04;101688.31;5021328;28;46707;-73
2023/05/31 06:34:50;;;;;;;;;10.75;10.25;;;;;18.41;54.20;101684.53;5020581;28;45323;-72
2023/05/31 06:37:15;;;;;;;;;22.50;14.00;;;;;18.41;54.01;101682.72;5021544;28;45284;-71
2023/05/31 06:39:40;;;;;;;;;18.75;13.25;;;;;18.43;53.94;101675.34;5021035;28;46440;-70
2023/05/31 06:42:06;;;;;;;;;13.75;13.00;;;;;18.44;53.92;101676.22;5020985;28;62299;-70
2023/05/31 06:44:32;;;;;;;;;14.75;13.00;;;;;18.47;53.60;101689.56;5021410;28;45402;-72
2023/05/31 06:46:57;;;;;;;;;16.00;15.75;;;;;18.44;53.89;101676.22;5020476;28;45281;-72
2023/05/31 06:49:22;;;;;;;;;14.25;13.25;;;;;18.56;53.88;101686.28;5021414;28;45229;-73
2023/05/31 06:51:48;;;;;;;;;19.25;13.50;;;;;18.60;53.70;101676.13;5021228;28;45504;-71
2023/05/31 06:54:13;;;;;;;;;14.50;14.25;;;;;18.68;53.34;101676.50;5020901;28;45296;-71
2023/05/31 06:56:39;;;;;;;;;24.00;15.75;;;;;18.74;52.79;101667.94;5021181;28;45344;-72
2023/05/31 06:59:04;;;;;;;;;16.25;13.25;;;;;18.76;52.77;101683.19;5020893;28;47701;-71
2023/05/31 07:01:29;;;;;;;;;16.75;14.50;;;;;18.82;52.75;101671.91;5021043;28;45363;-72
2023/05/31 07:03:55;;;;;;;;;15.50;13.75;;;;;18.85;52.52;101671.72;5020083;28;45316;-71
2023/05/31 07:06:20;;;;;;;;;15.50;11.50;;;;;18.90;52.59;101672.28;5021009;28;45320;-72
2023/05/31 07:08:46;;;;;;;;;16.00;11.75;;;;;18.94;52.42;101666.66;5020672;28;45401;-73
2023/05/31 07:11:12;;;;;;;;;19.50;14.00;;;;;18.99;52.15;101673.50;5020126;28;45566;-71
2023/05/31 07:13:37;;;;;;;;;13.75;12.50;;;;;19.03;51.78;101663.31;5020576;28;45461;-71
2023/05/31 07:16:03;;;;;;;;;16.75;15.75;;;;;19.03;51.72;101671.47;5020832;28;45455;-72
2023/05/31 07:18:28;;;;;;;;;18.50;13.75;;;;;19.05;51.79;101666.81;5020813;28;45346;-71
2023/05/31 07:20:56;;;;;;;;;18.00;17.00;;;;;19.06;51.66;101660.38;5020558;28;49579;-72
2023/05/31 07:23:23;;;;;;;;;17.25;14.75;;;;;19.06;51.95;101654.94;5006537;28;45557;-72
2023/05/31 07:25:48;;;;;;;;;13.75;11.75;;;;;19.06;51.27;101653.09;5019752;28;45277;-72
2023/05/31 07:28:13;;;;;;;;;16.25;13.25;;;;;19.10;51.82;101651.94;5020160;28;58919;-72
2023/05/31 07:30:39;;;;;;;;;13.50;11.75;;;;;19.09;51.44;101644.75;5020851;28;45261;-72
2023/05/31 07:33:04;;;;;;;;;12.50;9.75;;;;;19.17;51.51;101650.53;5019774;28;54121;-71
2023/05/31 07:35:29;;;;;;;;;11.75;11.75;;;;;19.19;51.37;101654.03;5019678;28;45376;-71
2023/05/31 07:37:55;;;;;;;;;15.00;13.50;;;;;19.26;51.25;101662.66;5020694;28;45316;-73
2023/05/31 07:40:20;;;;;;;;;15.25;12.50;;;;;19.28;50.73;101657.97;5001697;28;61049;-71
2023/05/31 07:42:45;;;;;;;;;11.00;11.00;;;;;19.31;50.96;101648.75;5020386;28;46067;-71
2023/05/31 07:45:11;;;;;;;;;13.25;12.25;;;;;19.36;51.28;101647.47;5019246;28;54519;-70
2023/05/31 07:47:36;;;;;;;;;13.50;10.25;;;;;19.42;51.18;101648.88;5020718;28;45491;-73
2023/05/31 07:50:01;;;;;;;;;12.50;11.00;;;;;19.48;50.73;101656.66;5019269;28;48844;-72
2023/05/31 07:52:26;;;;;;;;;14.50;9.75;;;;;19.52;50.72;101644.59;5001842;28;47798;-73
2023/05/31 07:54:52;;;;;;;;;13.25;13.25;;;;;19.56;50.94;101646.97;5019856;28;53039;-71
2023/05/31 07:57:17;;;;;;;;;13.75;13.50;;;;;19.56;50.70;101646.97;5020388;28;45313;-72
2023/05/31 07:59:43;;;;;;;;;11.75;11.75;;;;;19.57;50.53;101646.00;5019944;28;45321;-72
2023/05/31 08:02:08;;;;;;;;;15.50;11.25;;;;;19.63;50.72;101644.72;5019788;28;54381;-71
2023/05/31 08:04:33;;;;;;;;;16.75;13.75;;;;;19.64;50.48;101638.31;5020207;28;45392;-72
2023/05/31 08:06:58;;;;;;;;;17.75;13.50;;;;;19.67;50.57;101637.19;5019533;28;54399;-71
2023/05/31 08:09:24;;;;;;;;;13.50;13.00;;;;;19.74;50.40;101624.91;5019431;28;58866;-71
2023/05/31 08:11:52;;;;;;;;;13.00;7.25;;;;;19.79;50.24;101631.78;5019732;28;45343;-72
2023/05/31 08:14:17;;;;;;;;;14.75;11.50;;;;;19.82;50.11;101630.72;5019566;28;45320;-71
2023/05/31 08:16:42;;;;;;;;;11.75;10.00;;;;;19.88;49.80;101636.59;5019812;28;45285;-71
2023/05/31 08:19:08;;;;;;;;;15.25;11.25;;;;;19.88;49.61;101631.16;5019868;28;45455;-72
2023/05/31 08:21:35;;;;;;;;;13.75;12.00;;;;;19.93;49.32;101630.81;5019134;28;46113;-72
2023/05/31 08:24:02;;;;;;;;;14.25;11.00;;;;;19.92;49.51;101620.88;5019855;28;45367;-71
2023/05/31 08:26:27;;;;;;;;;12.00;11.00;;;;;19.99;49.14;101627.63;5019838;28;45891;-72
2023/05/31 08:28:53;;;;;;;;;12.50;12.00;;;;;20.00;49.00;101619.38;5019770;28;45521;-72
2023/05/31 08:31:18;;;;;;;;;8.00;8.00;;;;;20.05;48.70;101620.91;5019570;28;45382;-71
2023/05/31 08:33:55;;;;;;;;;11.00;9.50;;;;;20.09;48.92;101614.25;5019593;28;45285;-72
2023/05/31 08:36:20;;;;;;;;;13.00;10.50;;;;;20.13;48.72;101616.66;5006657;28;45360;-71
2023/05/31 08:38:45;;;;;;;;;8.75;8.75;;;;;20.17;48.83;101611.84;5019435;28;45341;-71
2023/05/31 08:41:11;;;;;;;;;10.00;9.25;;;;;20.19;48.49;101613.47;5019566;28;46503;-71
2023/05/31 08:43:39;;;;;;;;;12.50;10.25;;;;;20.23;48.22;101615.00;5019424;28;45384;-71
2023/05/31 08:46:06;;;;;;;;;11.25;10.25;;;;;20.28;48.21;101609.22;5019651;28;45273;-70
2023/05/31 08:48:44;;;;;;;;;9.50;9.50;;;;;20.33;48.52;101618.78;5019316;28;45431;-73
2023/05/31 08:51:09;;;;;;;;;16.25;12.00;;;;;20.39;48.35;101617.50;5018682;28;45242;-71
2023/05/31 08:53:36;;;;;;;;;11.00;7.50;;;;;20.43;47.94;101612.69;5019013;28;45413;-72
2023/05/31 08:56:03;;;;;;;;;9.75;8.50;;;;;20.48;47.72;101605.94;5019611;28;45325;-72
2023/05/31 08:58:29;;;;;;;;;9.50;8.00;;;;;20.49;47.67;101591.34;5019173;28;45544;-72
2023/05/31 09:00:55;;;;;;;;;9.00;7.75;;;;;20.56;47.55;101595.34;5019253;28;45433;-71
2023/05/31 09:03:22;;;;;;;;;8.00;7.00;;;;;20.66;47.63;101601.00;5019044;28;45379;-72
2023/05/31 09:05:47;;;;;;;;;8.00;8.00;;;;;20.69;47.01;101595.28;5018659;28;45356;-71
2023/05/31 09:08:13;;;;;;;;;9.00;7.75;;;;;20.71;47.19;101590.59;5018900;28;45313;-71
2023/05/31 09:10:39;;;;;;;;;9.00;9.00;;;;;20.73;47.07;101589.53;5018238;28;46182;-71
2023/05/31 09:13:06;;;;;;;;;9.25;9.25;;;;;20.76;46.74;101582.94;5019061;28;45325;-71
2023/05/31 09:15:32;;;;;;;;;8.25;7.00;;;;;20.77;46.83;101591.00;5018462;28;45327;-72
2023/05/31 09:18:11;;;;;;;;;9.00;7.50;;;;;20.82;47.03;101581.63;5018909;28;45388;-72
2023/05/31 09:20:36;;;;;;;;;10.75;9.75;;;;;20.84;46.90;101582.41;5019305;28;46237;-70
2023/05/31 09:23:03;;;;;;;;;10.50;9.00;;;;;20.88;46.17;101592.06;5018710;28;45448;-71
2023/05/31 09:25:42;;;;;;;;;8.25;8.25;;;;;20.92;46.48;101583.56;5018973;28;45409;-70
2023/05/31 09:28:07;;;;;;;;;9.25;8.75;;;;;20.94;46.55;101580.69;5017636;28;45509;-70
2023/05/31 09:30:33;;;;;;;;;8.50;8.50;;;;;20.97;46.46;101577.75;5018279;28;61017;-71
2023/05/31 09:32:59;;;;;;;;;10.00;8.00;;;;;21.01;46.83;101577.38;4997485;28;45318;-72
2023/05/31 09:35:27;;;;;;;;;10.50;7.00;;;;;21.06;46.41;101567.00;4998859;28;45336;-71
2023/05/31 09:37:53;;;;;;;;;9.25;8.00;;;;;21.10;46.47;101578.53;4998728;28;45379;-71
2023/05/31 09:40:26;;;;;;;;;9.50;8.25;;;;;21.13;45.87;101567.41;4998444;28;45980;-71
2023/05/31 09:42:54;;;;;;;;;5.50;5.50;;;;;21.17;46.19;101568.03;4985944;28;45344;-73
2023/05/31 09:45:21;;;;;;;;;8.75;7.25;;;;;21.22;46.33;101558.53;4998814;28;45343;-72
2023/05/31 09:47:47;;;;;;;;;11.00;8.75;;;;;21.27;45.97;101560.88;4998199;28;45454;-72
2023/05/31 09:50:21;;;;;;;;;9.75;7.50;;;;;21.33;45.91;101565.91;4998421;28;46115;-70
2023/05/31 09:52:49;;;;;;;;;10.25;6.75;;;;;21.38;45.84;101564.53;4998774;28;45367;-72
2023/05/31 09:55:16;;;;;;;;;7.75;7.00;;;;;21.44;46.40;101558.59;4997033;28;45566;-71
2023/05/31 09:57:46;;;;;;;;;9.25;8.25;;;;;21.48;45.80;101551.91;4998510;28;45317;-70
2023/05/31 10:00:16;;;;;;;;;9.50;8.00;;;;;21.53;45.46;101557.88;4998185;28;46358;-71
2023/05/31 10:02:46;;;;;;;;;9.75;9.00;;;;;21.56;46.07;101556.75;5000435;28;45367;-71
2023/05/31 10:05:12;;;;;;;;;8.50;6.75;;;;;21.50;45.21;101536.31;5001881;28;45328;-71
2023/05/31 10:07:39;;;;;;;;;9.50;8.75;;;;;21.64;45.09;101556.16;5002025;28;45374;-71
2023/05/31 10:10:06;;;;;;;;;11.75;9.50;;;;;21.66;45.16;101546.88;5000970;28;45415;-71
2023/05/31 10:12:39;;;;;;;;;9.50;8.50;;;;;21.66;44.83;101538.69;5002069;28;45336;-70
2023/05/31 10:15:09;;;;;;;;;8.50;8.00;;;;;21.76;45.86;101536.09;5001920;28;45423;-72
2023/05/31 10:17:42;;;;;;;;;14.25;9.50;;;;;21.81;45.21;101531.13;5001861;28;45495;-71
2023/05/31 10:20:10;;;;;;;;;7.75;6.50;;;;;21.85;44.93;101533.50;5000106;28;45512;-71
2023/05/31 10:22:42;;;;;;;;;7.00;7.00;;;;;21.92;44.69;101532.97;5001878;28;45490;-72
2023/05/31 10:25:13;;;;;;;;;9.00;9.00;;;;;21.96;44.18;101532.59;5001701;28;45313;-72
2023/05/31 10:27:44;;;;;;;;;8.00;7.00;;;;;22.01;44.80;101530.41;5001476;28;45615;-72
2023/05/31 10:30:12;;;;;;;;;8.75;8.25;;;;;22.06;44.74;101517.25;5001526;28;45309;-72
2023/05/31 10:32:43;;;;;;;;;8.75;6.25;;;;;22.10;43.55;101516.00;5015752;28;45249;-71
2023/05/31 10:35:09;;;;;;;;;9.00;7.00;;;;;22.10;43.34;101499.63;5020336;28;45305;-72
2023/05/31 10:37:38;;;;;;;;;8.50;4.25;;;;;22.20;43.74;101516.97;5021291;28;45244;-71
2023/05/31 10:40:21;;;;;;;;;7.75;6.75;;;;;22.27;43.69;101520.94;5021099;28;45349;-73
2023/05/31 10:43:14;;;;;;;;;9.00;6.25;;;;;22.35;43.86;101513.97;5021315;28;45270;-72
2023/05/31 10:45:43;;;;;;;;;6.25;6.00;;;;;22.36;42.96;101508.41;5021435;28;45440;-71
2023/05/31 10:48:39;;;;;;;;;9.75;7.50;;;;;22.45;42.53;101502.16;5021265;28;45506;-72
2023/05/31 10:51:04;;;;;;;;;9.00;6.75;;;;;22.52;42.52;101506.13;5008812;28;45285;-72
2023/05/31 10:53:35;;;;;;;;;7.25;7.25;;;;;22.56;42.67;101496.66;5020918;28;47707;-72
2023/05/31 10:56:03;;;;;;;;;7.50;6.50;;;;;22.62;42.72;101489.81;5004021;28;45429;-71
2023/05/31 10:58:38;;;;;;;;;11.50;7.00;;;;;22.70;41.92;101491.91;5020437;28;45299;-71
2023/05/31 11:01:14;;;;;;;;;9.25;8.00;;;;;22.76;42.31;101494.13;5020870;28;45938;-71
2023/05/31 11:03:48;;;;;;;;;8.50;6.50;;;;;22.79;41.85;101494.75;5020885;28;45380;-71
2023/05/31 11:06:17;;;;;;;;;3.75;3.00;;;;;22.88;42.37;101496.66;5020934;28;45493;-71
2023/05/31 11:09:00;;;;;;;;;8.00;8.00;;;;;22.96;41.95;101488.69;5020484;28;45522;-70
2023/05/31 11:11:44;;;;;;;;;7.25;6.75;;;;;23.07;42.11;101484.16;5020167;28;46353;-71
2023/05/31 11:14:15;;;;;;;;;9.00;8.00;;;;;23.18;41.87;101481.34;5020294;28;45258;-70
2023/05/31 11:16:43;;;;;;;;;10.75;7.75;;;;;23.25;41.86;101491.63;5020434;28;45333;-71
2023/05/31 11:19:15;;;;;;;;;8.75;8.00;;;;;23.35;41.51;101473.41;5020692;28;45448;-70
2023/05/31 11:21:55;;;;;;;;;9.50;8.25;;;;;23.44;41.57;101479.06;5019969;28;45358;-69
2023/05/31 11:24:33;;;;;;;;;9.50;9.00;;;;;23.54;40.85;101480.91;5020445;28;45368;-70
2023/05/31 11:27:00;;;;;;;;;7.50;6.25;;;;;23.61;40.98;101482.09;5020244;28;45360;-71
2023/05/31 11:29:44;;;;;;;;;7.25;6.25;;;;;23.70;40.70;101474.91;5020575;28;45464;-70
2023/05/31 11:32:13;;;;;;;;;8.75;7.25;;;;;23.75;40.32;101483.56;5020318;28;46368;-71
2023/05/31 11:35:10;;;;;;;;;10.25;8.75;;;;;23.84;40.07;101484.63;5020163;28;45437;-70
2023/05/31 11:37:37;;;;;;;;;8.25;7.75;;;;;23.92;39.66;101482.06;5019847;28;45372;-69
2023/05/31 11:40:07;;;;;;;;;9.75;8.00;;;;;23.98;39.85;101478.78;5019833;28;45427;-72
2023/05/31 11:42:36;;;;;;;;;13.00;8.00;;;;;24.07;40.17;101475.22;5018917;28;45291;-71
2023/05/31 11:45:05;;;;;;;;;10.00;8.00;;;;;24.17;39.85;101476.09;5020201;28;45410;-71
2023/05/31 11:47:48;;;;;;;;;8.00;8.00;;;;;24.25;40.04;101476.28;5020289;28;45360;-71
2023/05/31 11:50:17;;;;;;;;;9.25;6.75;;;;;24.33;39.49;101467.38;5020097;28;45517;-71
2023/05/31 11:52:43;;;;;;;;;8.50;7.00;;;;;24.38;39.75;101465.94;5020274;28;46124;-71
2023/05/31 11:55:09;;;;;;;;;8.75;7.50;;;;;24.50;39.23;101463.91;5019704;28;45508;-70
2023/05/31 11:57:46;;;;;;;;;11.25;9.25;;;;;24.59;39.38;101463.06;5020461;28;45395;-71
2023/05/31 12:00:14;;;;;;;;;9.75;6.00;;;;;24.70;39.23;101462.06;5020002;28;45417;-70
2023/05/31 12:02:41;;;;;;;;;12.00;8.75;;;;;24.79;39.40;101442.00;5020008;28;46414;-71
2023/05/31 12:05:11;;;;;;;;;11.25;9.75;;;;;24.89;39.44;101460.19;5019976;28;45455;-70
2023/05/31 12:07:36;;;;;;;;;8.50;8.50;;;;;24.99;38.41;101457.47;5020089;28;45331;-70
2023/05/31 12:10:05;;;;;;;;;11.00;9.50;;;;;25.08;38.41;101455.72;5019548;28;45333;-71
2023/05/31 12:12:30;;;;;;;;;9.50;8.25;;;;;25.21;38.48;101454.38;5020018;28;46430;-72
2023/05/31 12:14:56;;;;;;;;;11.50;7.75;;;;;25.32;37.96;101457.97;5019671;28;50251;-71
2023/05/31 12:17:21;;;;;;;;;10.75;9.00;;;;;25.40;37.88;101458.09;5020179;28;45241;-71
2023/05/31 12:19:48;;;;;;;;;8.50;8.50;;;;;25.54;37.67;101447.50;5019731;28;45622;-71
2023/05/31 12:22:13;;;;;;;;;10.00;8.75;;;;;25.61;37.44;101440.41;5019834;28;45346;-70
2023/05/31 12:24:48;;;;;;;;;12.25;9.75;;;;;25.75;37.82;101452.81;5018602;28;45851;-70
2023/05/31 12:27:15;;;;;;;;;11.25;9.50;;;;;25.85;36.47;101445.41;5019590;28;45333;-70
2023/05/31 12:29:40;;;;;;;;;7.00;7.00;;;;;25.99;36.60;101442.13;5019573;28;45392;-73
2023/05/31 12:32:06;;;;;;;;;11.75;9.25;;;;;26.14;36.29;101445.22;4998224;28;47241;-70
2023/05/31 12:34:37;;;;;;;;;9.00;9.00;;;;;26.23;36.36;101437.94;4999572;28;45343;-72
2023/05/31 12:37:07;;;;;;;;;9.75;6.75;;;;;26.26;36.39;101444.03;4999845;28;45362;-71
2023/05/31 12:39:33;;;;;;;;;9.25;9.25;;;;;26.41;36.16;101447.09;4999146;28;46150;-70
2023/05/31 12:42:00;;;;;;;;;13.50;7.00;;;;;26.49;36.00;101443.56;4999498;28;46160;-71
2023/05/31 12:44:27;;;;;;;;;11.00;9.75;;;;;26.59;36.23;101444.34;4999546;28;45408;-70
2023/05/31 12:46:59;;;;;;;;;5.50;4.50;;;;;26.70;36.08;101431.25;4999563;28;45153;-70
2023/05/31 12:49:27;;;;;;;;;11.75;9.50;;;;;26.85;36.01;101436.19;4987254;28;45388;-71
2023/05/31 12:51:58;;;;;;;;;7.75;7.75;;;;;26.98;35.66;101432.00;4999326;28;46407;-71
2023/05/31 12:54:25;;;;;;;;;12.00;9.00;;;;;27.14;35.72;101434.00;4999074;28;45384;-72
2023/05/31 12:56:50;;;;;;;;;9.00;8.50;;;;;27.26;34.92;101429.13;4999359;28;45344;-71
2023/05/31 12:59:16;;;;;;;;;10.75;7.00;;;;;27.30;34.58;101423.13;4998915;28;54183;-70
2023/05/31 13:01:41;;;;;;;;;10.75;9.75;;;;;27.37;34.28;101412.34;4999285;28;46159;-69
2023/05/31 13:04:09;;;;;;;;;9.75;7.75;;;;;27.46;34.23;101420.47;4999507;28;45183;-71
2023/05/31 13:06:35;;;;;;;;;7.00;6.50;;;;;27.49;33.62;101406.38;4999148;28;45284;-71
2023/05/31 13:09:04;;;;;;;;;8.00;7.00;;;;;27.72;34.19;101417.72;4998964;28;46370;-70
2023/05/31 13:11:39;;;;;;;;;9.25;8.25;;;;;27.87;34.17;101417.94;4999092;28;45370;-72
2023/05/31 13:14:08;;;;;;;;;12.00;6.75;;;;;28.07;34.47;101424.06;4999018;28;45406;-71
2023/05/31 13:16:35;;;;;;;;;2.25;1.50;;;;;28.13;33.31;101404.94;4999290;28;45383;-71
2023/05/31 13:19:03;;;;;;;;;8.50;8.50;;;;;28.31;33.65;101415.88;4999042;28;46035;-71
2023/05/31 13:21:29;;;;;;;;;9.50;7.50;;;;;28.42;32.94;101412.78;4998854;28;45418;-74
2023/05/31 13:23:55;;;;;;;;;9.00;8.00;;;;;28.52;33.02;101405.22;4998755;28;45404;-70
2023/05/31 13:26:26;;;;;;;;;9.00;7.25;;;;;28.61;33.06;101395.03;4998875;28;45235;-71
2023/05/31 13:28:52;;;;;;;;;7.25;7.00;;;;;28.64;32.42;101396.59;4998972;28;46186;-71
2023/05/31 13:31:17;;;;;;;;;8.00;8.00;;;;;28.54;32.67;101405.03;5001718;28;45632;-72
2023/05/31 13:33:43;;;;;;;;;10.25;8.00;;;;;28.67;32.38;101408.16;5018860;28;45420;-71
2023/05/31 13:36:08;;;;;;;;;8.75;7.00;;;;;28.76;31.74;101384.16;5018412;28;45432;-70
2023/05/31 13:38:34;;;;;;;;;8.00;8.00;;;;;28.93;31.68;101400.59;5018647;28;46185;-72
2023/05/31 13:40:59;;;;;;;;;5.00;5.00;;;;;29.00;31.39;101392.50;5018514;28;45514;-70
2023/05/31 13:43:25;;;;;;;;;9.25;7.25;;;;;29.11;31.51;101405.91;5018865;28;45376;-70
2023/05/31 13:45:52;;;;;;;;;9.25;7.25;;;;;29.22;31.79;101408.31;5018753;28;45304;-71
2023/05/31 13:48:18;;;;;;;;;5.25;4.50;;;;;29.39;31.78;101397.28;5018707;28;45252;-70
2023/05/31 13:50:44;;;;;;;;;8.25;7.00;;;;;29.55;30.52;101389.78;5018375;28;45387;-72
2023/05/31 13:53:09;;;;;;;;;10.25;6.00;;;;;29.69;29.99;101389.03;5018361;28;45333;-71
2023/05/31 13:55:36;;;;;;;;;8.25;7.00;;;;;29.84;30.30;101388.28;5018710;28;45194;-70
2023/05/31 13:58:02;;;;;;;;;8.00;7.00;;;;;29.94;29.62;101388.97;5018560;28;45416;-70
2023/05/31 14:00:29;;;;;;;;;6.50;5.50;;;;;29.94;29.26;101387.03;5000328;28;46519;-73
2023/05/31 14:02:54;;;;;;;;;6.50;6.50;;;;;29.99;28.56;101376.31;5018450;28;45346;-70
2023/05/31 14:05:19;;;;;;;;;6.00;4.75;;;;;30.04;29.04;101378.53;5018593;28;45392;-71
2023/05/31 14:07:45;;;;;;;;;6.50;5.00;;;;;30.26;28.28;101387.91;5018038;28;45480;-72
2023/05/31 14:10:10;;;;;;;;;6.00;4.75;;;;;30.46;28.13;101378.94;5018156;28;45343;-72
2023/05/31 14:12:36;;;;;;;;;6.50;5.50;;;;;30.79;27.34;101370.41;5018455;28;45260;-70
2023/05/31 14:15:01;;;;;;;;;5.75;5.00;;;;;31.20;26.84;101366.22;5018462;28;45222;-70
2023/05/31 14:17:27;;;;;;;;;5.25;4.00;;;;;31.59;26.37;101370.59;5018297;28;45419;-69
2023/05/31 14:19:52;;;;;;;;;5.50;5.50;;;;;31.97;26.26;101376.91;5017968;28;45945;-70
2023/05/31 14:22:17;;;;;;;;;6.50;6.00;;;;;32.40;25.71;101365.91;5017765;28;54155;-70
2023/05/31 14:24:42;;;;;;;;;4.50;4.50;;;;;32.66;25.37;101355.91;5017937;28;45308;-69
2023/05/31 14:27:08;;;;;;;;;5.25;5.25;;;;;32.90;24.60;101359.34;5018047;28;45313;-69
2023/05/31 14:29:33;;;;;;;;;7.00;4.75;;;;;33.18;24.35;101353.75;4999770;28;50572;-70
2023/05/31 14:31:58;;;;;;;;;6.50;3.50;;;;;33.44;24.13;101349.25;5017930;28;45371;-69
2023/05/31 14:34:25;;;;;;;;;5.00;5.00;;;;;33.65;23.77;101356.63;5017776;28;46843;-69
2023/05/31 14:36:50;;;;;;;;;6.00;4.75;;;;;33.84;23.77;101346.72;5017959;28;45380;-69
2023/05/31 14:39:16;;;;;;;;;8.00;6.00;;;;;33.96;22.80;101339.47;5017551;28;46097;-69
2023/05/31 14:41:41;;;;;;;;;4.75;4.25;;;;;34.14;22.91;101333.31;5017839;28;45333;-68
2023/05/31 14:44:06;;;;;;;;;5.25;3.50;;;;;34.10;22.62;101338.44;5018084;28;45435;-69
2023/05/31 14:46:32;;;;;;;;;2.75;2.75;;;;;34.10;22.74;101340.38;5018085;28;45341;-69
2023/05/31 14:48:57;;;;;;;;;5.00;5.00;;;;;34.05;22.85;101343.75;5019114;28;46100;-70
2023/05/31 14:51:23;;;;;;;;;6.00;5.00;;;;;34.00;22.86;101324.06;5021574;28;45429;-69
2023/05/31 14:53:48;;;;;;;;;4.00;4.00;;;;;34.04;23.38;101318.94;5020995;28;45257;-70
2023/05/31 14:56:14;;;;;;;;;5.50;5.50;;;;;33.98;22.68;101319.78;5020217;28;58652;-68
2023/05/31 14:58:39;;;;;;;;;7.00;4.00;;;;;33.96;22.38;101316.34;5021330;28;45839;-68
2023/05/31 15:01:05;;;;;;;;;4.00;4.00;;;;;33.89;22.94;101316.31;5021220;28;45329;-70
2023/05/31 15:03:30;;;;;;;;;5.00;5.00;;;;;33.84;22.77;101316.09;5020633;28;45300;-70
2023/05/31 15:05:55;;;;;;;;;5.25;3.50;;;;;33.84;22.35;101310.53;5021159;28;45327;-69
2023/05/31 15:08:21;;;;;;;;;6.00;5.00;;;;;33.87;22.45;101306.47;5020805;28;46112;-69
2023/05/31 15:10:47;;;;;;;;;5.00;5.00;;;;;33.97;22.54;101310.56;5020419;28;45384;-68
2023/05/31 15:13:13;;;;;;;;;6.00;5.00;;;;;34.05;22.82;101315.06;5021145;28;45341;-69
2023/05/31 15:15:38;;;;;;;;;4.25;3.25;;;;;34.04;22.99;101299.44;5020228;28;45424;-69
2023/05/31 15:18:05;;;;;;;;;3.75;3.75;;;;;34.09;22.93;101308.03;5020874;28;45265;-69
2023/05/31 15:20:30;;;;;;;;;3.75;3.25;;;;;34.04;22.53;101303.09;5021035;28;45246;-66
2023/05/31 15:22:56;;;;;;;;;5.00;4.00;;;;;33.93;22.92;101300.94;5019817;28;52721;-71
2023/05/31 15:25:21;;;;;;;;;8.00;5.25;;;;;33.96;23.05;101310.78;5020668;28;45505;-69
2023/05/31 15:27:47;;;;;;;;;5.00;5.00;;;;;33.92;23.03;101310.34;5020391;28;45379;-69
2023/05/31 15:30:12;;;;;;;;;5.75;5.00;;;;;33.87;23.28;101298.97;5020852;28;45375;-71
2023/05/31 15:32:38;;;;;;;;;7.25;6.25;;;;;33.74;23.18;101305.38;5020731;28;45447;-70
2023/05/31 15:35:04;;;;;;;;;7.00;5.25;;;;;33.73;23.34;101300.00;5020348;28;45494;-70
2023/05/31 15:37:29;;;;;;;;;3.75;3.75;;;;;33.74;23.66;101301.72;5020222;28;46079;-70
2023/05/31 15:39:55;;;;;;;;;4.75;4.75;;;;;33.72;23.51;101298.25;5019560;28;45471;-69
2023/05/31 15:42:20;;;;;;;;;6.50;4.25;;;;;33.81;23.67;101291.47;5020839;28;45270;-70
2023/05/31 15:44:47;;;;;;;;;6.00;6.00;;;;;33.79;23.83;101288.03;5020597;28;45320;-68
2023/05/31 15:47:14;;;;;;;;;5.75;3.25;;;;;33.65;23.04;101286.25;5020383;28;46295;-69
2023/05/31 15:49:39;;;;;;;;;4.75;4.75;;;;;33.58;23.11;101288.16;5020575;28;45375;-70
2023/05/31 15:52:05;;;;;;;;;4.00;4.00;;;;;33.46;23.25;101287.88;5020560;28;45260;-71